Time;durP1;ratioP1;P1;durP2;ratioP2;P2;SDS_P1;SDS_P2;PMS_P1;PMS_P2;Temp;Humidity;BMP_temperature;BMP_pressure;BME280_temperature;BME280_humidity;BME280_pressure;Samples;Min_cycle;Max_cycle;Signal;HPM_P1;HPM_P2
2022/03/24 00:00:48;;;;;;;15.63;7.62;;;;;;;;;;143739;598;46010;-64
2022/03/24 00:03:15;;;;;;;9.82;5.40;;;;;;;;;;143742;564;45022;-64
2022/03/24 00:05:42;;;;;;;15.05;6.78;;;;;;;;;;143734;600;46018;-64
2022/03/24 00:08:09;;;;;;;12.02;6.55;;;;;;;;;;143737;600;46023;-65
2022/03/24 00:10:36;;;;;;;10.63;5.68;;;;;;;;;;143741;570;46010;-64
2022/03/24 00:13:03;;;;;;;14.68;7.60;;;;;;;;;;143743;569;45022;-64
2022/03/24 00:15:30;;;;;;;13.23;7.05;;;;;;;;;;143741;598;46019;-65
2022/03/24 00:17:58;;;;;;;15.38;7.35;;;;;;;;;;143740;565;46022;-64
2022/03/24 00:20:25;;;;;;;14.80;7.05;;;;;;;;;;143740;601;46010;-64
2022/03/24 00:22:53;;;;;;;10.63;5.95;;;;;;;;;;143744;569;45023;-64
2022/03/24 00:25:20;;;;;;;15.65;8.30;;;;;;;;;;143742;569;47018;-65
2022/03/24 00:27:47;;;;;;;12.88;6.60;;;;;;;;;;143740;604;46022;-65
2022/03/24 00:30:15;;;;;;;20.75;8.70;;;;;;;;;;143735;583;46011;-65
2022/03/24 00:32:42;;;;;;;13.95;7.45;;;;;;;;;;143744;571;46023;-64
2022/03/24 00:35:09;;;;;;;16.37;7.87;;;;;;;;;;143742;600;46020;-65
2022/03/24 00:37:36;;;;;;;19.90;8.55;;;;;;;;;;143738;576;46023;-65
2022/03/24 00:40:07;;;;;;;21.02;8.05;;;;;;;;;;143740;626;46010;-65
2022/03/24 00:42:35;;;;;;;15.25;7.18;;;;;;;;;;143740;606;45022;-65
2022/03/24 00:45:04;;;;;;;17.62;8.43;;;;;;;;;;143742;566;46020;-65
2022/03/24 00:47:31;;;;;;;17.40;9.52;;;;;;;;;;143740;592;46022;-64
2022/03/24 00:49:58;;;;;;;17.95;7.47;;;;;;;;;;143741;595;46010;-64
2022/03/24 00:52:25;;;;;;;14.02;7.15;;;;;;;;;;143743;583;46022;-64
2022/03/24 00:54:52;;;;;;;17.08;7.12;;;;;;;;;;143732;604;46021;-65
2022/03/24 00:57:19;;;;;;;16.75;8.20;;;;;;;;;;143740;563;46022;-65
2022/03/24 00:59:47;;;;;;;12.82;7.35;;;;;;;;;;143740;564;46010;-65
2022/03/24 01:02:14;;;;;;;12.45;7.05;;;;;;;;;;143742;577;45023;-65
2022/03/24 01:04:41;;;;;;;16.95;7.90;;;;;;;;;;143743;576;46020;-65
2022/03/24 01:07:09;;;;;;;17.55;9.32;;;;;;;;;;143736;724;46022;-65
2022/03/24 01:09:36;;;;;;;22.02;8.82;;;;;;;;;;143742;611;46018;-66
2022/03/24 01:12:03;;;;;;;19.17;9.80;;;;;;;;;;143744;596;45022;-66
2022/03/24 01:14:35;;;;;;;18.85;8.98;;;;;;;;;;143742;695;46020;-67
2022/03/24 01:17:04;;;;;;;23.67;9.32;;;;;;;;;;143740;564;46022;-66
2022/03/24 01:19:31;;;;;;;18.62;8.90;;;;;;;;;;143735;619;46010;-67
2022/03/24 01:21:58;;;;;;;19.70;7.97;;;;;;;;;;143743;565;45023;-67
2022/03/24 01:24:25;;;;;;;15.38;8.38;;;;;;;;;;143742;564;46018;-67
2022/03/24 01:26:52;;;;;;;17.45;8.80;;;;;;;;;;143740;599;46022;-66
2022/03/24 01:29:21;;;;;;;21.33;8.43;;;;;;;;;;143742;710;46011;-66
2022/03/24 01:31:48;;;;;;;20.80;9.23;;;;;;;;;;143742;581;45023;-67
2022/03/24 01:34:17;;;;;;;16.90;9.45;;;;;;;;;;143742;681;46018;-67
2022/03/24 01:36:44;;;;;;;17.37;9.75;;;;;;;;;;143739;695;46023;-67
2022/03/24 01:39:11;;;;;;;14.25;7.78;;;;;;;;;;143741;613;46010;-67
2022/03/24 01:41:40;;;;;;;18.20;8.15;;;;;;;;;;143744;565;45022;-66
2022/03/24 01:44:17;;;;;;;14.52;8.60;;;;;;;;;;143733;641;47042;-66
2022/03/24 01:47:02;;;;;;;19.20;9.77;;;;;;;;;;143739;578;46023;-65
2022/03/24 01:49:31;;;;;;;16.95;8.57;;;;;;;;;;143741;674;46010;-66
2022/03/24 01:51:59;;;;;;;19.77;9.82;;;;;;;;;;143744;578;45023;-66
2022/03/24 01:54:30;;;;;;;19.33;9.20;;;;;;;;;;143743;590;46018;-66
2022/03/24 01:56:58;;;;;;;27.23;9.55;;;;;;;;;;143740;661;46022;-65
2022/03/24 01:59:25;;;;;;;21.50;10.95;;;;;;;;;;143742;583;46010;-66
2022/03/24 02:01:53;;;;;;;17.15;10.25;;;;;;;;;;143744;570;46023;-66
2022/03/24 02:04:20;;;;;;;22.65;11.32;;;;;;;;;;143740;637;47018;-65
2022/03/24 02:06:47;;;;;;;16.65;9.75;;;;;;;;;;143739;566;46023;-66
2022/03/24 02:09:15;;;;;;;23.23;11.77;;;;;;;;;;143734;598;46010;-65
2022/03/24 02:11:42;;;;;;;19.77;9.52;;;;;;;;;;143744;571;46022;-65
2022/03/24 02:14:09;;;;;;;24.55;10.82;;;;;;;;;;143741;586;46020;-65
2022/03/24 02:16:39;;;;;;;18.02;9.70;;;;;;;;;;143738;630;46023;-65
2022/03/24 02:19:14;;;;;;;20.98;10.20;;;;;;;;;;143739;580;46010;-65
2022/03/24 02:21:41;;;;;;;14.27;9.52;;;;;;;;;;143739;608;46023;-65
2022/03/24 02:24:09;;;;;;;25.35;11.23;;;;;;;;;;143741;675;46021;-66
2022/03/24 02:26:37;;;;;;;20.33;11.55;;;;;;;;;;143738;641;46022;-65
2022/03/24 02:29:08;;;;;;;22.27;11.45;;;;;;;;;;143742;571;46011;-65
2022/03/24 02:31:40;;;;;;;23.05;11.02;;;;;;;;;;143743;588;45023;-65
2022/03/24 02:36:54;;;;;;;26.73;11.52;;;;;;;;;;143739;598;45919;-65
2022/03/24 02:39:21;;;;;;;17.80;9.57;;;;;;;;;;143741;579;46010;-65
2022/03/24 02:41:55;;;;;;;19.40;10.05;;;;;;;;;;143742;589;46022;-65
2022/03/24 02:44:28;;;;;;;21.23;11.52;;;;;;;;;;143741;627;46019;-65
2022/03/24 02:46:56;;;;;;;21.00;11.52;;;;;;;;;;143738;571;46022;-65
2022/03/24 02:49:26;;;;;;;23.15;11.18;;;;;;;;;;143740;694;46010;-65
2022/03/24 02:51:58;;;;;;;20.37;10.43;;;;;;;;;;143743;620;45023;-65
2022/03/24 02:54:27;;;;;;;24.85;14.13;;;;;;;;;;143741;610;46021;-65
2022/03/24 02:56:54;;;;;;;26.15;14.07;;;;;;;;;;143740;616;46022;-65
2022/03/24 02:59:21;;;;;;;22.83;13.25;;;;;;;;;;143736;591;46011;-65
2022/03/24 03:02:02;;;;;;;21.50;12.27;;;;;;;;;;143744;707;46022;-65
2022/03/24 03:04:31;;;;;;;19.70;10.65;;;;;;;;;;143741;680;46020;-65
2022/03/24 03:07:02;;;;;;;22.90;11.68;;;;;;;;;;143739;576;46023;-65
2022/03/24 03:09:30;;;;;;;21.55;11.40;;;;;;;;;;143739;569;46010;-65
2022/03/24 03:11:58;;;;;;;21.48;10.02;;;;;;;;;;143744;582;46022;-65
2022/03/24 03:14:27;;;;;;;18.12;10.77;;;;;;;;;;143741;566;46020;-65
2022/03/24 03:16:54;;;;;;;22.80;11.88;;;;;;;;;;143737;577;46022;-65
2022/03/24 03:19:21;;;;;;;18.75;11.07;;;;;;;;;;143742;668;46010;-65
2022/03/24 03:21:49;;;;;;;22.52;12.05;;;;;;;;;;143743;605;45023;-65
2022/03/24 03:24:18;;;;;;;15.93;9.57;;;;;;;;;;143735;565;46021;-64
2022/03/24 03:26:45;;;;;;;21.50;9.70;;;;;;;;;;143739;600;46022;-65
2022/03/24 03:29:13;;;;;;;26.80;12.98;;;;;;;;;;143741;570;46011;-65
2022/03/24 03:31:40;;;;;;;18.80;11.02;;;;;;;;;;143743;603;46023;-65
2022/03/24 03:34:08;;;;;;;18.80;10.02;;;;;;;;;;143741;572;46018;-65
2022/03/24 03:36:37;;;;;;;21.77;11.45;;;;;;;;;;143739;600;46023;-65
2022/03/24 03:39:07;;;;;;;19.02;9.70;;;;;;;;;;143742;579;46010;-64
2022/03/24 03:41:35;;;;;;;27.70;12.45;;;;;;;;;;143742;589;46022;-64
2022/03/24 03:44:03;;;;;;;27.25;13.15;;;;;;;;;;143742;566;46019;-64
2022/03/24 03:46:30;;;;;;;21.40;11.82;;;;;;;;;;143740;581;46022;-64
2022/03/24 03:48:57;;;;;;;20.92;10.25;;;;;;;;;;143736;625;46010;-64
2022/03/24 03:51:26;;;;;;;18.62;9.25;;;;;;;;;;143744;725;45023;-65
2022/03/24 03:53:52;;;;;;;21.27;9.48;;;;;;;;;;143741;565;46021;-65
2022/03/24 03:56:19;;;;;;;22.45;12.55;;;;;;;;;;143739;565;46022;-65
2022/03/24 03:58:47;;;;;;;19.55;10.73;;;;;;;;;;143741;580;46010;-65
2022/03/24 04:01:14;;;;;;;36.28;13.43;;;;;;;;;;143743;672;46022;-65
2022/03/24 04:03:41;;;;;;;23.23;10.25;;;;;;;;;;143742;585;46020;-65
2022/03/24 04:06:12;;;;;;;28.25;12.95;;;;;;;;;;143738;583;46023;-65
2022/03/24 04:08:41;;;;;;;26.95;12.75;;;;;;;;;;143737;599;46018;-65
2022/03/24 04:11:09;;;;;;;25.90;13.05;;;;;;;;;;143744;572;45022;-65
2022/03/24 04:13:37;;;;;;;27.50;12.40;;;;;;;;;;143734;633;46020;-65
2022/03/24 04:16:06;;;;;;;26.85;12.65;;;;;;;;;;143740;573;46022;-65
2022/03/24 04:18:33;;;;;;;20.27;11.38;;;;;;;;;;143739;657;46010;-65
2022/03/24 04:21:00;;;;;;;27.30;13.10;;;;;;;;;;143743;710;46022;-65
2022/03/24 04:23:26;;;;;;;31.83;12.93;;;;;;;;;;143742;684;46018;-66
2022/03/24 04:25:53;;;;;;;21.27;11.07;;;;;;;;;;143740;589;46022;-65
2022/03/24 04:28:21;;;;;;;18.73;11.20;;;;;;;;;;143740;574;46012;-66
2022/03/24 04:30:48;;;;;;;20.90;10.95;;;;;;;;;;143744;601;46023;-66
2022/03/24 04:33:15;;;;;;;20.25;12.50;;;;;;;;;;143741;581;46020;-66
2022/03/24 04:35:42;;;;;;;28.08;12.27;;;;;;;;;;143739;579;46023;-66
2022/03/24 04:38:10;;;;;;;29.15;13.30;;;;;;;;;;143735;569;46010;-65
2022/03/24 04:40:37;;;;;;;27.25;14.00;;;;;;;;;;143744;575;45022;-66
2022/03/24 04:43:04;;;;;;;28.20;14.55;;;;;;;;;;143741;690;46019;-66
2022/03/24 04:45:32;;;;;;;29.25;12.63;;;;;;;;;;143737;581;46022;-65
2022/03/24 04:48:00;;;;;;;18.42;11.20;;;;;;;;;;143741;613;46010;-66
2022/03/24 04:50:29;;;;;;;22.08;12.32;;;;;;;;;;143744;576;46022;-66
2022/03/24 04:52:56;;;;;;;21.42;11.10;;;;;;;;;;143740;624;47018;-66
2022/03/24 04:55:23;;;;;;;17.58;11.10;;;;;;;;;;143741;608;46022;-66
2022/03/24 04:57:50;;;;;;;22.35;11.52;;;;;;;;;;143740;679;46010;-66
2022/03/24 05:00:18;;;;;;;18.48;9.90;;;;;;;;;;143743;756;45023;-66
2022/03/24 05:02:50;;;;;;;33.47;12.27;;;;;;;;;;143873;609;46022;-66
2022/03/24 05:05:17;;;;;;;24.58;11.40;;;;;;;;;;143746;574;45020;-65
2022/03/24 05:07:45;;;;;;;22.52;11.73;;;;;;;;;;143742;673;46021;-65
2022/03/24 05:10:12;;;;;;;28.25;14.18;;;;;;;;;;143742;642;46020;-66
2022/03/24 05:12:40;;;;;;;32.80;14.80;;;;;;;;;;143744;599;45020;-66
2022/03/24 05:15:08;;;;;;;25.95;11.82;;;;;;;;;;143744;566;46020;-65
2022/03/24 05:17:35;;;;;;;28.10;15.15;;;;;;;;;;143742;696;46023;-66
2022/03/24 05:20:03;;;;;;;26.45;11.68;;;;;;;;;;143739;593;46020;-65
2022/03/24 05:22:29;;;;;;;23.70;11.50;;;;;;;;;;143742;623;45021;-66
2022/03/24 05:24:57;;;;;;;25.75;12.05;;;;;;;;;;143745;577;46020;-65
2022/03/24 05:27:24;;;;;;;20.95;11.45;;;;;;;;;;143743;573;46022;-65
2022/03/24 05:29:51;;;;;;;22.35;11.85;;;;;;;;;;143739;580;46021;-65
2022/03/24 05:32:18;;;;;;;19.50;11.38;;;;;;;;;;143740;578;45910;-65
2022/03/24 05:34:46;;;;;;;18.00;10.73;;;;;;;;;;143747;586;45020;-64
2022/03/24 05:37:14;;;;;;;21.25;11.65;;;;;;;;;;143742;605;46021;-64
2022/03/24 05:39:42;;;;;;;18.20;9.90;;;;;;;;;;143741;595;46020;-64
2022/03/24 05:42:09;;;;;;;14.68;9.23;;;;;;;;;;143750;607;45911;-65
2022/03/24 05:44:37;;;;;;;20.88;9.98;;;;;;;;;;143752;623;46020;-65
2022/03/24 05:47:04;;;;;;;18.10;8.88;;;;;;;;;;143742;576;46023;-65
2022/03/24 05:49:31;;;;;;;16.33;9.32;;;;;;;;;;143746;696;46020;-64
2022/03/24 05:51:58;;;;;;;19.02;8.90;;;;;;;;;;143750;602;45020;-65
2022/03/24 05:54:25;;;;;;;17.17;9.43;;;;;;;;;;143751;607;45021;-64
2022/03/24 05:56:52;;;;;;;18.33;10.23;;;;;;;;;;143745;616;46022;-64
2022/03/24 05:59:19;;;;;;;18.98;10.05;;;;;;;;;;143741;584;46020;-64
2022/03/24 06:01:47;;;;;;;14.07;8.85;;;;;;;;;;143739;575;46012;-64
2022/03/24 06:04:15;;;;;;;17.17;10.82;;;;;;;;;;143739;601;45026;-64
2022/03/24 06:06:43;;;;;;;19.98;14.07;;;;;;;;;;143735;576;46022;-64
2022/03/24 06:09:10;;;;;;;25.45;17.20;;;;;;;;;;143733;732;46020;-64
2022/03/24 06:11:38;;;;;;;20.17;10.85;;;;;;;;;;143735;620;46012;-64
2022/03/24 06:14:12;;;;;;;25.10;10.68;;;;;;;;;;143737;617;46020;-64
2022/03/24 06:16:40;;;;;;;21.45;10.38;;;;;;;;;;143734;598;46023;-64
2022/03/24 06:19:09;;;;;;;23.27;10.75;;;;;;;;;;143732;589;46020;-65
2022/03/24 06:21:40;;;;;;;17.80;9.70;;;;;;;;;;143735;657;45021;-64
2022/03/24 06:24:08;;;;;;;23.02;11.35;;;;;;;;;;143739;643;46021;-65
2022/03/24 06:26:35;;;;;;;19.52;11.25;;;;;;;;;;143735;630;46020;-65
2022/03/24 06:29:03;;;;;;;17.75;11.35;;;;;;;;;;143732;578;46020;-65
2022/03/24 06:31:30;;;;;;;18.33;9.77;;;;;;;;;;143735;584;45033;-65
2022/03/24 06:33:58;;;;;;;20.12;9.20;;;;;;;;;;143737;587;46034;-65
2022/03/24 06:36:25;;;;;;;17.52;10.93;;;;;;;;;;143734;607;46021;-65
2022/03/24 06:38:52;;;;;;;23.98;10.43;;;;;;;;;;143732;607;46021;-66
2022/03/24 06:41:19;;;;;;;20.10;11.12;;;;;;;;;;143734;569;46014;-65
2022/03/24 06:43:47;;;;;;;18.10;11.30;;;;;;;;;;143737;611;46019;-65
2022/03/24 06:46:14;;;;;;;24.48;11.00;;;;;;;;;;143734;664;46023;-64
2022/03/24 06:48:41;;;;;;;20.60;10.23;;;;;;;;;;143734;576;46020;-65
2022/03/24 06:51:08;;;;;;;18.15;9.13;;;;;;;;;;143736;671;45020;-65
2022/03/24 06:53:35;;;;;;;15.52;8.13;;;;;;;;;;143739;583;46021;-65
2022/03/24 06:56:03;;;;;;;16.62;8.60;;;;;;;;;;143735;636;46020;-65
2022/03/24 06:58:30;;;;;;;19.15;7.97;;;;;;;;;;143732;581;46020;-66
2022/03/24 07:00:57;;;;;;;14.48;8.00;;;;;;;;;;143736;572;45021;-65
2022/03/24 07:03:24;;;;;;;13.82;6.75;;;;;;;;;;143736;688;46012;-65
2022/03/24 07:05:51;;;;;;;13.68;7.47;;;;;;;;;;143734;592;46022;-65
2022/03/24 07:08:18;;;;;;;17.45;7.25;;;;;;;;;;143731;566;46021;-65
2022/03/24 07:10:46;;;;;;;12.10;6.00;;;;;;;;;;143737;567;45020;-65
2022/03/24 07:13:13;;;;;;;12.00;7.37;;;;;;;;;;143737;589;46020;-65
2022/03/24 07:15:40;;;;;;;14.52;7.65;;;;;;;;;;143734;587;46023;-65
2022/03/24 07:18:07;;;;;;;14.30;6.55;;;;;;;;;;143732;583;46020;-65
2022/03/24 07:20:35;;;;;;;11.05;6.82;;;;;;;;;;143737;628;45020;-65
2022/03/24 07:23:03;;;;;;;10.70;6.30;;;;;;;;;;143738;634;46021;-65
2022/03/24 07:25:31;;;;;;;10.77;6.35;;;;;;;;;;143735;569;46020;-65
2022/03/24 07:27:59;;;;;;;12.77;7.20;;;;;;;;;;143731;637;46026;-65
2022/03/24 07:30:27;;;;;;;10.52;6.30;;;;;;;;;;143735;564;45021;-65
2022/03/24 07:32:56;;;;;;;12.50;5.80;;;;;;;;;;143738;673;45020;-65
2022/03/24 07:35:26;;;;;;;12.25;6.40;;;;;;;;;;143735;591;46022;-65
2022/03/24 07:37:53;;;;;;;12.48;5.68;;;;;;;;;;143732;579;46021;-66
2022/03/24 07:40:21;;;;;;;9.50;5.12;;;;;;;;;;143735;703;45020;-66
2022/03/24 07:42:50;;;;;;;12.70;6.03;;;;;;;;;;143739;591;46020;-66
2022/03/24 07:45:17;;;;;;;9.35;5.18;;;;;;;;;;143734;618;46021;-66
2022/03/24 07:48:09;;;;;;;10.55;4.60;;;;;;;;;;143734;570;46020;-67
2022/03/24 07:50:47;;;;;;;12.90;5.07;;;;;;;;;;143734;569;46020;-66
2022/03/24 07:53:34;;;;;;;7.70;4.70;;;;;;;;;;143739;735;45021;-66
2022/03/24 07:56:02;;;;;;;13.43;4.72;;;;;;;;;;143734;667;46022;-66
2022/03/24 07:58:29;;;;;;;11.15;5.00;;;;;;;;;;143735;579;45918;-67
2022/03/24 08:00:57;;;;;;;9.43;5.57;;;;;;;;;;143734;714;46012;-66
2022/03/24 08:03:24;;;;;;;9.38;6.10;;;;;;;;;;143738;585;46020;-66
2022/03/24 08:05:52;;;;;;;13.60;6.55;;;;;;;;;;143733;574;47020;-66
2022/03/24 08:08:20;;;;;;;12.13;6.35;;;;;;;;;;143731;564;46021;-66
2022/03/24 08:10:48;;;;;;;9.15;6.05;;;;;;;;;;143736;601;46012;-67
2022/03/24 08:13:17;;;;;;;9.02;5.43;;;;;;;;;;143737;569;46020;-66
2022/03/24 08:15:45;;;;;;;15.52;6.97;;;;;;;;;;143735;587;46023;-67
2022/03/24 08:18:13;;;;;;;16.00;6.20;;;;;;;;;;143730;622;46020;-67
2022/03/24 08:20:42;;;;;;;10.85;5.80;;;;;;;;;;143735;614;46012;-66
2022/03/24 08:23:10;;;;;;;22.42;6.85;;;;;;;;;;143735;573;49021;-67
2022/03/24 08:25:38;;;;;;;11.73;6.05;;;;;;;;;;143734;569;46022;-66
2022/03/24 08:28:05;;;;;;;13.68;5.57;;;;;;;;;;143732;621;46020;-66
2022/03/24 08:30:33;;;;;;;8.80;5.93;;;;;;;;;;143738;633;45021;-66
2022/03/24 08:33:00;;;;;;;13.27;6.03;;;;;;;;;;143738;608;46020;-66
2022/03/24 08:35:27;;;;;;;16.48;6.43;;;;;;;;;;143734;569;46021;-65
2022/03/24 08:37:55;;;;;;;10.95;5.50;;;;;;;;;;143732;577;46020;-66
2022/03/24 08:40:23;;;;;;;10.65;5.18;;;;;;;;;;143734;737;46012;-66
2022/03/24 08:42:50;;;;;;;8.18;4.57;;;;;;;;;;143739;601;46012;-67
2022/03/24 08:45:17;;;;;;;10.48;4.93;;;;;;;;;;143735;593;46021;-66
2022/03/24 08:47:44;;;;;;;11.65;4.85;;;;;;;;;;143731;646;46020;-66
2022/03/24 08:50:12;;;;;;;10.00;4.65;;;;;;;;;;143735;597;45020;-66
2022/03/24 08:52:42;;;;;;;8.25;5.12;;;;;;;;;;143739;619;46021;-67
2022/03/24 08:55:13;;;;;;;10.70;5.40;;;;;;;;;;143734;653;46022;-66
2022/03/24 08:57:41;;;;;;;10.75;5.82;;;;;;;;;;143732;631;46020;-66
2022/03/24 09:00:13;;;;;;;8.00;4.37;;;;;;;;;;143735;622;46013;-65
2022/03/24 09:02:45;;;;;;;8.88;4.65;;;;;;;;;;143739;804;46020;-65
2022/03/24 09:05:12;;;;;;;10.18;4.25;;;;;;;;;;143733;575;47020;-66
2022/03/24 09:07:39;;;;;;;10.50;5.55;;;;;;;;;;143733;629;46021;-66
2022/03/24 09:10:07;;;;;;;11.80;5.00;;;;;;;;;;143735;582;46012;-66
2022/03/24 09:12:39;;;;;;;8.43;4.70;;;;;;;;;;143737;815;46012;-66
2022/03/24 09:15:08;;;;;;;13.20;5.10;;;;;;;;;;143736;564;46021;-66
2022/03/24 09:17:36;;;;;;;7.90;4.85;;;;;;;;;;143732;612;46020;-66
2022/03/24 09:20:11;;;;;;;11.60;5.15;;;;;;;;;;143735;601;45020;-65
2022/03/24 09:22:39;;;;;;;8.35;5.43;;;;;;;;;;143738;578;45021;-65
2022/03/24 09:25:07;;;;;;;8.77;4.87;;;;;;;;;;143734;581;46022;-65
2022/03/24 09:27:35;;;;;;;11.25;5.47;;;;;;;;;;143731;565;46020;-65
2022/03/24 09:30:04;;;;;;;8.00;4.78;;;;;;;;;;143734;609;46013;-66
2022/03/24 09:32:31;;;;;;;8.40;5.05;;;;;;;;;;143737;689;46020;-65
2022/03/24 09:34:58;;;;;;;10.20;4.87;;;;;;;;;;143734;762;46022;-65
2022/03/24 09:37:25;;;;;;;10.95;5.22;;;;;;;;;;143734;735;46029;-65
2022/03/24 09:39:52;;;;;;;11.18;5.12;;;;;;;;;;143735;765;46012;-65
2022/03/24 09:42:21;;;;;;;13.32;5.15;;;;;;;;;;143738;569;46012;-65
2022/03/24 09:44:49;;;;;;;10.23;5.80;;;;;;;;;;143735;590;46023;-65
2022/03/24 09:47:16;;;;;;;15.57;6.10;;;;;;;;;;143731;571;46020;-65
2022/03/24 09:49:44;;;;;;;14.25;5.70;;;;;;;;;;143733;585;46020;-65
2022/03/24 09:52:12;;;;;;;11.00;5.07;;;;;;;;;;143736;576;46012;-65
2022/03/24 09:54:45;;;;;;;12.35;5.90;;;;;;;;;;143734;573;46022;-65
2022/03/24 09:57:13;;;;;;;11.13;5.20;;;;;;;;;;143732;580;46020;-66
2022/03/24 09:59:40;;;;;;;9.80;5.22;;;;;;;;;;143735;570;46013;-66
2022/03/24 10:02:08;;;;;;;10.27;5.62;;;;;;;;;;143738;569;45032;-65
2022/03/24 10:04:51;;;;;;;9.85;5.62;;;;;;;;;;143734;582;46022;-65
2022/03/24 10:07:20;;;;;;;9.38;5.07;;;;;;;;;;143732;628;46021;-66
2022/03/24 10:09:49;;;;;;;13.73;6.00;;;;;;;;;;143733;566;46020;-66
2022/03/24 10:12:33;;;;;;;17.15;5.43;;;;;;;;;;143737;582;46029;-65
2022/03/24 10:15:11;;;;;;;9.27;5.07;;;;;;;;;;143733;571;47023;-65
2022/03/24 10:17:41;;;;;;;8.60;5.10;;;;;;;;;;143733;577;46020;-66
2022/03/24 10:20:14;;;;;;;8.00;5.20;;;;;;;;;;143734;595;46012;-65
2022/03/24 10:23:05;;;;;;;8.70;5.00;;;;;;;;;;143737;565;46012;-66
2022/03/24 10:25:34;;;;;;;12.07;5.05;;;;;;;;;;143734;564;47020;-65
2022/03/24 10:28:17;;;;;;;10.85;5.20;;;;;;;;;;143733;657;46020;-66
2022/03/24 10:30:59;;;;;;;6.70;4.40;;;;;;;;;;143734;571;46012;-65
2022/03/24 10:33:38;;;;;;;14.05;5.32;;;;;;;;;;143738;604;46022;-66
2022/03/24 10:36:30;;;;;;;17.62;5.37;;;;;;;;;;143735;620;46022;-65
2022/03/24 10:39:04;;;;;;;5.20;3.85;;;;;;;;;;143734;581;46012;-65
2022/03/24 10:41:36;;;;;;;7.78;4.50;;;;;;;;;;143735;577;46012;-65
2022/03/24 10:44:13;;;;;;;18.12;5.18;;;;;;;;;;143738;565;46021;-67
2022/03/24 10:46:42;;;;;;;9.40;4.72;;;;;;;;;;143735;576;46022;-66
2022/03/24 10:49:23;;;;;;;8.80;4.65;;;;;;;;;;143734;564;46020;-66
2022/03/24 10:51:51;;;;;;;10.30;4.60;;;;;;;;;;143735;630;45021;-66
2022/03/24 10:54:49;;;;;;;7.85;4.57;;;;;;;;;;143738;605;46020;-65
2022/03/24 10:57:18;;;;;;;7.28;4.57;;;;;;;;;;143733;609;47022;-66
2022/03/24 11:02:36;;;;;;;9.40;5.00;;;;;;;;;;143738;597;47020;-66
2022/03/24 11:05:12;;;;;;;11.88;4.87;;;;;;;;;;143751;571;45021;-66
2022/03/24 11:07:40;;;;;;;12.80;5.20;;;;;;;;;;143744;581;46023;-65
2022/03/24 11:10:14;;;;;;;13.95;4.97;;;;;;;;;;143746;631;46020;-64
2022/03/24 11:12:43;;;;;;;12.77;4.78;;;;;;;;;;143750;660;45021;-65
2022/03/24 11:15:10;;;;;;;8.32;4.75;;;;;;;;;;143753;573;45021;-64
2022/03/24 11:17:39;;;;;;;9.30;4.75;;;;;;;;;;143748;600;47020;-65
2022/03/24 11:20:27;;;;;;;12.68;5.68;;;;;;;;;;143746;574;46020;-64
2022/03/24 11:23:02;;;;;;;10.70;5.50;;;;;;;;;;143749;632;46012;-65
2022/03/24 11:25:29;;;;;;;14.10;5.12;;;;;;;;;;143752;569;46012;-64
2022/03/24 11:27:57;;;;;;;13.23;5.07;;;;;;;;;;143742;583;46022;-65
2022/03/24 11:30:25;;;;;;;13.15;5.20;;;;;;;;;;143743;578;46029;-65
2022/03/24 11:32:54;;;;;;;10.05;5.43;;;;;;;;;;143750;632;45020;-65
2022/03/24 11:35:22;;;;;;;9.15;5.00;;;;;;;;;;143751;564;45021;-65
2022/03/24 11:37:51;;;;;;;9.40;4.97;;;;;;;;;;143749;616;46023;-65
2022/03/24 11:40:30;;;;;;;8.60;4.93;;;;;;;;;;143745;574;46020;-66
2022/03/24 11:43:06;;;;;;;8.98;5.62;;;;;;;;;;143748;590;46021;-65
2022/03/24 11:45:50;;;;;;;12.98;5.50;;;;;;;;;;143753;616;45020;-65
2022/03/24 11:48:18;;;;;;;13.23;6.03;;;;;;;;;;143749;617;47020;-66
2022/03/24 11:50:54;;;;;;;11.23;5.62;;;;;;;;;;143746;631;46029;-65
2022/03/24 11:53:39;;;;;;;9.13;5.43;;;;;;;;;;143746;611;46012;-66
2022/03/24 11:56:16;;;;;;;13.05;6.07;;;;;;;;;;143753;585;46020;-65
2022/03/24 11:59:25;;;;;;;8.07;4.82;;;;;;;;;;143749;748;46022;-65
2022/03/24 12:02:16;;;;;;;9.85;5.40;;;;;;;;;;143738;569;46020;-65
2022/03/24 12:04:57;;;;;;;9.13;4.95;;;;;;;;;;143735;580;46012;-66
2022/03/24 12:07:25;;;;;;;10.63;5.80;;;;;;;;;;143738;610;46012;-66
2022/03/24 12:10:04;;;;;;;14.48;6.65;;;;;;;;;;143737;703;46020;-66
2022/03/24 12:12:31;;;;;;;10.68;5.15;;;;;;;;;;143734;617;46021;-66
2022/03/24 12:15:08;;;;;;;11.80;5.90;;;;;;;;;;143737;590;45021;-66
2022/03/24 12:17:35;;;;;;;14.25;6.62;;;;;;;;;;143740;617;46020;-66
2022/03/24 12:20:18;;;;;;;12.60;6.62;;;;;;;;;;143737;564;46022;-66
2022/03/24 12:22:46;;;;;;;11.10;5.25;;;;;;;;;;143734;587;46020;-66
2022/03/24 12:25:24;;;;;;;12.60;6.40;;;;;;;;;;143738;617;45033;-67
2022/03/24 12:28:27;;;;;;;11.52;6.32;;;;;;;;;;143740;588;46021;-66
2022/03/24 12:31:08;;;;;;;16.90;10.23;;;;;;;;;;143736;566;46024;-67
2022/03/24 12:33:41;;;;;;;16.08;8.07;;;;;;;;;;143732;586;46020;-66
2022/03/24 12:36:13;;;;;;;28.17;11.55;;;;;;;;;;143739;624;45021;-66
2022/03/24 12:38:44;;;;;;;12.40;6.43;;;;;;;;;;143737;571;46012;-67
2022/03/24 12:41:21;;;;;;;13.85;7.85;;;;;;;;;;143736;594;46022;-66
2022/03/24 12:43:53;;;;;;;12.15;5.90;;;;;;;;;;143735;589;46020;-66
2022/03/24 12:46:47;;;;;;;11.27;7.00;;;;;;;;;;143737;620;46012;-66
2022/03/24 12:49:34;;;;;;;14.18;7.28;;;;;;;;;;143738;572;46020;-66
2022/03/24 12:52:11;;;;;;;15.63;5.87;;;;;;;;;;143736;599;46025;-66
2022/03/24 12:54:44;;;;;;;10.02;5.28;;;;;;;;;;143734;598;46020;-66
2022/03/24 12:57:27;;;;;;;12.98;6.60;;;;;;;;;;143737;580;46020;-65
2022/03/24 12:59:55;;;;;;;10.98;6.20;;;;;;;;;;143740;571;46020;-66
2022/03/24 13:02:23;;;;;;;10.90;5.75;;;;;;;;;;143735;569;46038;-66
2022/03/24 13:04:52;;;;;;;10.93;5.37;;;;;;;;;;143734;569;46023;-66
2022/03/24 13:07:19;;;;;;;15.63;5.43;;;;;;;;;;143738;618;46012;-66
2022/03/24 13:10:09;;;;;;;16.15;5.68;;;;;;;;;;143738;615;46020;-66
2022/03/24 13:12:37;;;;;;;10.40;5.03;;;;;;;;;;143734;656;47021;-66
2022/03/24 13:15:06;;;;;;;18.08;5.50;;;;;;;;;;143733;569;46020;-66
2022/03/24 13:17:33;;;;;;;15.00;5.30;;;;;;;;;;143736;590;46020;-66
2022/03/24 13:20:04;;;;;;;10.32;5.55;;;;;;;;;;143737;609;46010;-66
2022/03/24 13:22:31;;;;;;;7.55;4.90;;;;;;;;;;143736;611;46023;-66
2022/03/24 13:25:07;;;;;;;12.95;5.90;;;;;;;;;;143736;595;46020;-66
2022/03/24 13:27:35;;;;;;;7.65;4.82;;;;;;;;;;143737;583;46012;-66
2022/03/24 13:30:07;;;;;;;7.35;4.85;;;;;;;;;;143740;593;46010;-66
2022/03/24 13:32:35;;;;;;;8.20;4.93;;;;;;;;;;143737;587;46020;-66
2022/03/24 13:35:08;;;;;;;8.55;5.20;;;;;;;;;;143735;593;46021;-66
2022/03/24 13:37:43;;;;;;;10.93;4.47;;;;;;;;;;143737;569;46012;-67
2022/03/24 13:40:16;;;;;;;7.45;4.75;;;;;;;;;;143739;589;45020;-66
2022/03/24 13:42:45;;;;;;;8.70;4.45;;;;;;;;;;143735;605;46022;-65
2022/03/24 13:45:13;;;;;;;10.48;4.90;;;;;;;;;;143735;590;46020;-66
2022/03/24 13:47:50;;;;;;;7.65;4.47;;;;;;;;;;143735;592;46012;-66
2022/03/24 13:50:20;;;;;;;11.68;4.60;;;;;;;;;;143738;681;46012;-66
2022/03/24 13:52:51;;;;;;;12.93;5.65;;;;;;;;;;143735;574;46023;-67
2022/03/24 13:55:23;;;;;;;15.07;5.45;;;;;;;;;;143735;675;46020;-66
2022/03/24 13:57:58;;;;;;;7.80;4.75;;;;;;;;;;143736;629;46012;-66
2022/03/24 14:00:45;;;;;;;8.77;5.07;;;;;;;;;;143739;566;46010;-67
2022/03/24 14:03:20;;;;;;;10.75;5.25;;;;;;;;;;143759;569;45022;-66
2022/03/24 14:06:22;;;;;;;;;;;;;;;;;;143768;979;45915;-66
2022/03/24 14:08:53;;;;;;;11.12;5.05;;;;;;;;;;143769;638;45012;-67
2022/03/24 14:11:26;;;;;;;10.05;4.70;;;;;;;;;;143766;641;45013;-66
2022/03/24 14:13:58;;;;;;;9.30;5.30;;;;;;;;;;143761;585;45023;-67
2022/03/24 14:16:48;;;;;;;11.77;4.87;;;;;;;;;;143761;579;45020;-66
2022/03/24 14:19:19;;;;;;;11.45;5.03;;;;;;;;;;143764;564;45013;-66
2022/03/24 14:22:16;;;;;;;8.68;4.62;;;;;;;;;;143765;576;45021;-66
2022/03/24 14:24:46;;;;;;;8.93;5.35;;;;;;;;;;143766;581;45020;-66
2022/03/24 14:27:21;;;;;;;10.48;4.97;;;;;;;;;;143762;577;45917;-67
2022/03/24 14:30:11;;;;;;;9.85;5.40;;;;;;;;;;143757;620;45020;-67
2022/03/24 14:32:39;;;;;;;10.85;4.70;;;;;;;;;;143765;638;45020;-67
2022/03/24 14:35:28;;;;;;;8.90;4.82;;;;;;;;;;143763;566;45022;-66
2022/03/24 14:37:57;;;;;;;11.30;5.18;;;;;;;;;;143762;605;45916;-67
2022/03/24 14:40:38;;;;;;;8.93;5.32;;;;;;;;;;143764;692;45020;-67
2022/03/24 14:43:13;;;;;;;10.65;5.05;;;;;;;;;;143765;618;45021;-67
2022/03/24 14:45:42;;;;;;;12.45;5.03;;;;;;;;;;143766;576;45022;-66
2022/03/24 14:48:10;;;;;;;10.93;5.35;;;;;;;;;;143762;599;45915;-66
2022/03/24 14:50:39;;;;;;;8.15;4.78;;;;;;;;;;143760;569;45021;-67
2022/03/24 14:53:08;;;;;;;8.80;4.85;;;;;;;;;;143764;594;46020;-67